This is the latest recevied weather packets stored in our database for station/object N5COP-13. If no packets are shown the sender has not sent any weather packets the latest 10 day(s).
| Time | Temp. | Humidity | Pressure | Rain* | Wind** | Luminosity | Snow |
|---|---|---|---|---|---|---|---|
| 1777507636 | 20° C | 32% | 1015.2 hPa | 0 mm | - | 134 W/m² | - |
| 1777507333 | 20° C | 32% | 1015.2 hPa | 0 mm | - | 150 W/m² | - |
| 1777506728 | 20° C | 32% | 1015.1 hPa | 0 mm | - | 176 W/m² | - |
| 1777506120 | 20.56° C | 31% | 1015.1 hPa | 0 mm | - | 209 W/m² | - |
| 1777493687 | 20° C | 31% | 1016.9 hPa | 0 mm | - | 788 W/m² | - |
| 1777491563 | 20° C | 31% | 1017.5 hPa | 0 mm | - | 830 W/m² | - |
| 1777491261 | 19.44° C | 32% | 1017.7 hPa | 0 mm | - | 839 W/m² | - |
| 1777490957 | 19.44° C | 32% | 1017.8 hPa | 0 mm | - | 841 W/m² | - |
| 1777490652 | 19.44° C | 32% | 1017.5 hPa | 0 mm | - | 845 W/m² | - |
| 1777490349 | 19.44° C | 32% | 1017.9 hPa | 0 mm | - | 848 W/m² | - |
| 1777490047 | 18.89° C | 33% | 1017.9 hPa | 0 mm | - | 849 W/m² | - |
| 1777489441 | 18.89° C | 34% | 1018 hPa | 0 mm | - | 851 W/m² | - |
| 1777489137 | 18.33° C | 34% | 1018 hPa | 0 mm | - | 830 W/m² | - |
| 1777488835 | 18.33° C | 35% | 1018.2 hPa | 0 mm | - | 844 W/m² | - |
| 1777488532 | 18.89° C | 36% | 1018 hPa | 0 mm | - | 863 W/m² | - |
| 1777487927 | 18.33° C | 38% | 1018.3 hPa | 0 mm | - | 786 W/m² | - |
| 1777487322 | 17.78° C | 39% | 1018.4 hPa | 0 mm | - | 749 W/m² | - |
| 1777486715 | 17.78° C | 39% | 1018.5 hPa | 0 mm | - | 799 W/m² | - |
| 1777486413 | 16.67° C | 39% | 1018.8 hPa | 0 mm | - | 746 W/m² | - |
| 1777485801 | 16.67° C | 40% | 1019 hPa | 0 mm | - | 696 W/m² | - |
| 1777485194 | 16.67° C | 42% | 1019.1 hPa | 0 mm | - | 762 W/m² | - |
| 1777484284 | 16.11° C | 43% | 1019.4 hPa | 0 mm | - | 760 W/m² | - |
| 1777483979 | 16.11° C | 43% | 1019.4 hPa | 0 mm | - | 788 W/m² | - |
| 1777483676 | 16.11° C | 44% | 1019.7 hPa | 0 mm | - | 818 W/m² | - |
| 1777483372 | 16.11° C | 45% | 1019.7 hPa | 0 mm | - | 801 W/m² | - |
* Rain latest hour (hover to see other rain measurements)
** Current wind speed in m/s (hover to see current wind gust speed)